Time;durP1;ratioP1;P1;durP2;ratioP2;P2;SDS_P1;SDS_P2;PMS_P1;PMS_P2;Temp;Humidity;BMP_temperature;BMP_pressure;BME280_temperature;BME280_humidity;BME280_pressure;Samples;Min_cycle;Max_cycle;Signal;HPM_P1;HPM_P2
2023/07/08 00:01:39;;;;;;;12.60;10.00;;;;;;;17.69;100.00;100919.10;110163;1235;57602;-68
2023/07/08 00:04:07;;;;;;;17.60;14.10;;;;;;;17.61;100.00;100915.59;110323;1234;60305;-68
2023/07/08 00:06:36;;;;;;;22.50;15.00;;;;;;;17.60;100.00;100915.89;110438;1234;63599;-68
2023/07/08 00:09:11;;;;;;;18.00;12.00;;;;;;;17.59;100.00;100912.86;110410;1234;60747;-69
2023/07/08 00:11:40;;;;;;;14.00;11.00;;;;;;;17.54;100.00;100915.48;110209;1233;59741;-69
2023/07/08 00:14:08;;;;;;;23.20;13.80;;;;;;;17.53;100.00;100915.88;110277;1234;73732;-70
2023/07/08 00:16:38;;;;;;;14.90;11.50;;;;;;;17.46;100.00;100909.11;110425;1235;62190;-69
2023/07/08 00:19:10;;;;;;;14.70;9.80;;;;;;;17.43;100.00;100914.14;110195;1234;61624;-71
2023/07/08 00:21:39;;;;;;;14.70;12.30;;;;;;;17.37;100.00;100903.32;110454;1234;73904;-70
2023/07/08 00:24:07;;;;;;;17.10;12.90;;;;;;;17.38;100.00;100901.14;110337;1233;72457;-70
2023/07/08 00:26:36;;;;;;;13.60;11.30;;;;;;;17.38;100.00;100900.48;110452;1233;60689;-71
2023/07/08 00:29:10;;;;;;;17.00;12.60;;;;;;;17.34;100.00;100912.63;110460;1234;63226;-71
2023/07/08 00:31:38;;;;;;;18.80;13.90;;;;;;;17.34;100.00;100925.33;110342;1234;62742;-72
2023/07/08 00:34:07;;;;;;;18.00;13.40;;;;;;;17.30;100.00;100929.55;110447;1234;57198;-71
2023/07/08 00:36:36;;;;;;;16.10;12.30;;;;;;;17.30;100.00;100929.41;110320;1235;62726;-70
2023/07/08 00:39:14;;;;;;;19.00;13.30;;;;;;;17.30;100.00;100926.05;110190;1234;61475;-71
2023/07/08 00:41:43;;;;;;;17.60;14.20;;;;;;;17.30;100.00;100923.02;110214;1234;59813;-73
2023/07/08 00:44:12;;;;;;;16.70;13.00;;;;;;;17.31;100.00;100921.88;110038;1234;63132;-73
2023/07/08 00:47:12;;;;;;;16.60;12.30;;;;;;;17.32;100.00;100920.59;110004;1238;57639;-72
2023/07/08 00:50:11;;;;;;;17.10;13.80;;;;;;;17.29;100.00;100919.34;110235;1234;60151;-86
2023/07/08 00:52:40;;;;;;;17.40;11.90;;;;;;;17.27;100.00;100920.05;110411;1234;74198;-74
2023/07/08 00:55:09;;;;;;;14.90;11.90;;;;;;;17.24;100.00;100915.23;110245;1233;72515;-74
2023/07/08 00:57:44;;;;;;;14.90;12.10;;;;;;;17.24;100.00;100912.91;110075;1233;59626;-74
2023/07/08 01:00:16;;;;;;;16.90;12.30;;;;;;;17.21;100.00;100918.29;110164;1234;73933;-74
2023/07/08 01:02:54;;;;;;;19.70;12.80;;;;;;;17.18;100.00;100907.84;110072;1237;62512;-74
2023/07/08 01:05:27;;;;;;;15.80;11.30;;;;;;;17.13;100.00;100911.54;110240;1238;57703;-73
2023/07/08 01:08:01;;;;;;;15.30;9.60;;;;;;;17.11;100.00;100917.30;110353;1234;74049;-74
2023/07/08 01:10:53;;;;;;;18.60;11.70;;;;;;;17.08;100.00;100919.67;110470;1233;62355;-73
2023/07/08 01:13:23;;;;;;;19.00;13.50;;;;;;;17.07;100.00;100912.83;110307;1234;69647;-74
2023/07/08 01:15:52;;;;;;;14.60;9.90;;;;;;;17.06;100.00;100916.95;110403;1233;74075;-74
2023/07/08 01:18:21;;;;;;;16.00;12.70;;;;;;;17.05;100.00;100915.81;110352;1236;62776;-73
2023/07/08 01:20:50;;;;;;;16.20;11.40;;;;;;;17.03;100.00;100914.90;110137;1239;57447;-72
2023/07/08 01:23:19;;;;;;;14.40;9.20;;;;;;;17.01;100.00;100917.41;110265;1238;61934;-73
2023/07/08 01:25:51;;;;;;;13.40;10.70;;;;;;;16.97;100.00;100919.62;110375;1233;71397;-73
2023/07/08 01:28:20;;;;;;;12.40;10.90;;;;;;;16.96;100.00;100917.05;110474;1234;60885;-74
2023/07/08 01:30:50;;;;;;;12.90;10.30;;;;;;;16.93;100.00;100918.44;110401;1234;74040;-74
2023/07/08 01:33:24;;;;;;;16.40;10.40;;;;;;;16.90;100.00;100927.25;110283;1233;63476;-74
2023/07/08 01:35:55;;;;;;;13.10;10.10;;;;;;;16.89;100.00;100928.09;110261;1234;57611;-74
2023/07/08 01:38:26;;;;;;;15.10;10.50;;;;;;;16.84;100.00;100919.43;110219;1234;73526;-72
2023/07/08 01:40:57;;;;;;;14.90;9.70;;;;;;;16.80;100.00;100924.16;110273;1233;62318;-73
2023/07/08 01:43:27;;;;;;;13.70;10.20;;;;;;;16.77;100.00;100927.34;110286;1235;70532;-72
2023/07/08 01:46:00;;;;;;;16.10;9.90;;;;;;;16.70;100.00;100927.60;110340;1234;73519;-72
2023/07/08 01:48:35;;;;;;;13.30;8.80;;;;;;;16.65;100.00;100927.95;110267;1235;57287;-71
2023/07/08 01:51:07;;;;;;;13.00;9.70;;;;;;;16.61;100.00;100929.98;110250;1238;57781;-72
2023/07/08 01:53:40;;;;;;;14.40;10.70;;;;;;;16.57;100.00;100927.02;110370;1233;73856;-73
2023/07/08 01:56:12;;;;;;;12.20;9.40;;;;;;;16.54;100.00;100932.92;110289;1235;62062;-72
2023/07/08 01:58:42;;;;;;;11.30;8.80;;;;;;;16.54;100.00;100942.11;110210;1233;60001;-72
2023/07/08 02:01:11;;;;;;;12.10;8.10;;;;;;;16.49;100.00;100937.30;110184;1234;73928;-72
2023/07/08 02:03:40;;;;;;;13.50;8.90;;;;;;;16.44;100.00;100936.70;110375;1238;57641;-72
2023/07/08 02:06:12;;;;;;;12.10;8.50;;;;;;;16.40;100.00;100934.23;110400;1238;57169;-73
2023/07/08 02:08:41;;;;;;;17.70;9.00;;;;;;;16.35;100.00;100935.19;110514;1235;62785;-73
2023/07/08 02:11:10;;;;;;;8.80;6.40;;;;;;;16.28;100.00;100935.57;110358;1234;70436;-73
2023/07/08 02:13:39;;;;;;;13.70;7.80;;;;;;;16.22;100.00;100945.63;110437;1233;70034;-74
2023/07/08 02:16:08;;;;;;;9.50;6.30;;;;;;;16.14;100.00;100936.98;110322;1234;72693;-74
2023/07/08 02:18:36;;;;;;;8.60;6.50;;;;;;;16.09;100.00;100931.14;110280;1236;62576;-73
2023/07/08 02:21:05;;;;;;;11.80;7.40;;;;;;;16.05;100.00;100933.63;110450;1235;57712;-72
2023/07/08 02:23:34;;;;;;;9.20;7.10;;;;;;;16.01;100.00;100934.21;110334;1237;62722;-72
2023/07/08 02:26:03;;;;;;;12.20;7.60;;;;;;;15.97;100.00;100935.60;110393;1236;61491;-72
2023/07/08 02:28:32;;;;;;;11.40;7.60;;;;;;;15.93;100.00;100933.14;110461;1235;59204;-71
2023/07/08 02:31:04;;;;;;;13.60;7.00;;;;;;;15.88;100.00;100936.60;110299;1234;72902;-71
2023/07/08 02:33:33;;;;;;;9.50;7.10;;;;;;;15.82;100.00;100943.98;110458;1235;62990;-71
2023/07/08 02:36:02;;;;;;;10.30;6.80;;;;;;;15.78;100.00;100945.23;110313;1233;61655;-72
2023/07/08 02:38:31;;;;;;;10.40;8.00;;;;;;;15.73;100.00;100946.89;110188;1233;73915;-72
2023/07/08 02:41:00;;;;;;;12.80;8.00;;;;;;;15.72;100.00;100946.70;110369;1237;61159;-72
2023/07/08 02:43:30;;;;;;;13.20;7.70;;;;;;;15.68;100.00;100951.63;110112;1234;70445;-72
2023/07/08 02:46:00;;;;;;;11.40;7.00;;;;;;;15.62;100.00;100950.64;110434;1233;63368;-71
2023/07/08 02:48:29;;;;;;;13.30;7.80;;;;;;;15.60;100.00;100949.45;110382;1234;57148;-72
2023/07/08 02:51:03;;;;;;;12.40;7.40;;;;;;;15.57;100.00;100948.16;110392;1233;60504;-72
2023/07/08 02:53:32;;;;;;;12.30;7.90;;;;;;;15.53;100.00;100946.02;110384;1237;73774;-72
2023/07/08 02:56:01;;;;;;;11.30;6.90;;;;;;;15.51;100.00;100946.43;110514;1235;61161;-73
2023/07/08 02:58:30;;;;;;;10.50;6.70;;;;;;;15.48;100.00;100950.73;110349;1238;59025;-72
2023/07/08 03:01:00;;;;;;;14.60;6.40;;;;;;;15.44;100.00;100947.95;110374;1237;62300;-72
2023/07/08 03:03:30;;;;;;;8.40;5.80;;;;;;;15.42;100.00;100949.70;110470;1234;57577;-73
2023/07/08 03:06:07;;;;;;;7.80;5.90;;;;;;;15.39;100.00;100953.95;110464;1235;57615;-73
2023/07/08 03:08:36;;;;;;;11.50;7.30;;;;;;;15.37;100.00;100951.85;110140;1238;62257;-72
2023/07/08 03:11:07;;;;;;;11.20;7.60;;;;;;;15.37;100.00;100949.94;110460;1236;61601;-71
2023/07/08 03:13:37;;;;;;;11.30;7.20;;;;;;;15.36;100.00;100950.51;110560;1235;59839;-72
2023/07/08 03:16:12;;;;;;;10.50;6.20;;;;;;;15.35;100.00;100950.11;110152;1234;73860;-72
2023/07/08 03:18:47;;;;;;;8.30;5.40;;;;;;;15.34;100.00;100953.55;110348;1235;57755;-72
2023/07/08 03:21:19;;;;;;;9.80;6.50;;;;;;;15.33;100.00;100952.76;110353;1239;61282;-73
2023/07/08 03:23:50;;;;;;;12.20;7.10;;;;;;;15.31;100.00;100952.38;110373;1234;74061;-72
2023/07/08 03:26:24;;;;;;;9.10;6.30;;;;;;;15.28;100.00;100954.95;110277;1234;72538;-71
2023/07/08 03:28:53;;;;;;;12.70;7.40;;;;;;;15.26;100.00;100956.69;110128;1233;69924;-72
2023/07/08 03:31:22;;;;;;;7.90;6.40;;;;;;;15.23;100.00;100961.50;110284;1238;64005;-71
2023/07/08 03:33:52;;;;;;;10.00;6.60;;;;;;;15.22;100.00;100960.10;110283;1238;62855;-71
2023/07/08 03:36:24;;;;;;;10.50;7.00;;;;;;;15.18;100.00;100956.86;110501;1233;57555;-73
2023/07/08 03:38:56;;;;;;;11.70;7.30;;;;;;;15.16;100.00;100955.12;110230;1238;62860;-71
2023/07/08 03:41:25;;;;;;;15.70;7.30;;;;;;;15.16;100.00;100949.01;110350;1238;62093;-72
2023/07/08 03:43:56;;;;;;;9.70;6.60;;;;;;;15.16;100.00;100958.67;110640;1233;59740;-74
2023/07/08 03:46:25;;;;;;;8.70;5.90;;;;;;;15.14;100.00;100963.92;110420;1236;63266;-73
2023/07/08 03:48:54;;;;;;;9.70;6.30;;;;;;;15.13;100.00;100957.32;110582;1235;57705;-71
2023/07/08 03:51:27;;;;;;;11.60;7.20;;;;;;;15.14;100.00;100952.14;110445;1234;60020;-71
2023/07/08 03:53:56;;;;;;;13.20;7.50;;;;;;;15.12;100.00;100955.98;110418;1235;63421;-71
2023/07/08 03:56:25;;;;;;;13.30;7.80;;;;;;;15.10;100.00;100959.12;110338;1233;60891;-71
2023/07/08 03:58:54;;;;;;;11.90;7.30;;;;;;;15.10;100.00;100957.35;110439;1233;60009;-71
2023/07/08 04:01:25;;;;;;;9.30;6.00;;;;;;;15.13;100.00;100963.45;110395;1233;63086;-71
2023/07/08 04:03:58;;;;;;;9.90;6.80;;;;;;;15.13;100.00;100958.77;110390;1237;61752;-71
2023/07/08 04:06:28;;;;;;;10.70;6.50;;;;;;;15.15;100.00;100960.16;110170;1236;60780;-71
2023/07/08 04:08:57;;;;;;;14.10;6.30;;;;;;;15.15;100.00;100957.02;110420;1234;63307;-72
2023/07/08 04:11:26;;;;;;;10.70;7.00;;;;;;;15.11;100.00;100964.33;110434;1235;61424;-71
2023/07/08 04:13:55;;;;;;;8.80;6.60;;;;;;;15.11;100.00;100973.41;110418;1233;58947;-71
2023/07/08 04:16:32;;;;;;;10.10;7.70;;;;;;;15.12;100.00;100975.85;110370;1233;62210;-72
2023/07/08 04:19:01;;;;;;;10.00;7.20;;;;;;;15.12;100.00;100987.43;110233;1235;61915;-72
2023/07/08 04:21:30;;;;;;;10.50;6.90;;;;;;;15.09;100.00;100980.80;110221;1235;60150;-72
2023/07/08 04:23:59;;;;;;;10.30;7.40;;;;;;;15.12;100.00;100984.05;110398;1233;73922;-72
2023/07/08 04:26:27;;;;;;;8.50;6.60;;;;;;;15.12;100.00;100991.91;110393;1233;72487;-71
2023/07/08 04:28:56;;;;;;;11.00;7.00;;;;;;;15.12;100.00;100991.61;110382;1232;60300;-72
2023/07/08 04:31:25;;;;;;;11.30;7.80;;;;;;;15.12;100.00;100995.10;110496;1233;62198;-73
2023/07/08 04:33:54;;;;;;;12.50;7.40;;;;;;;15.10;100.00;100995.45;110530;1233;57274;-75
2023/07/08 04:36:24;;;;;;;8.70;5.90;;;;;;;15.10;100.00;100986.84;110562;1233;59291;-73
2023/07/08 04:38:53;;;;;;;8.80;6.50;;;;;;;15.08;100.00;100991.73;110587;1234;64605;-72
2023/07/08 04:41:22;;;;;;;10.70;7.00;;;;;;;15.06;100.00;100987.74;110453;1234;71371;-73
2023/07/08 04:43:53;;;;;;;10.80;7.10;;;;;;;15.05;100.00;100991.69;110375;1234;60309;-73
2023/07/08 04:46:39;;;;;;;8.80;6.20;;;;;;;15.03;100.00;100993.14;109959;1233;360648;-74
2023/07/08 04:49:13;;;;;;;12.30;7.00;;;;;;;15.01;100.00;100996.55;110463;1235;57126;-73
2023/07/08 04:51:42;;;;;;;9.30;6.20;;;;;;;15.01;100.00;100993.11;110450;1234;60177;-73
2023/07/08 04:54:11;;;;;;;8.60;6.40;;;;;;;15.00;100.00;100992.48;110435;1234;74079;-72
2023/07/08 04:56:43;;;;;;;10.70;5.90;;;;;;;14.99;100.00;100990.27;110284;1234;72439;-71
2023/07/08 04:59:16;;;;;;;8.10;6.20;;;;;;;14.96;100.00;100989.17;110398;1233;69375;-71
2023/07/08 05:01:45;;;;;;;10.80;5.90;;;;;;;14.97;100.00;100994.27;110422;1234;63453;-71
2023/07/08 05:04:20;;;;;;;9.20;5.60;;;;;;;14.98;100.00;100993.48;110352;1236;57634;-71
2023/07/08 05:06:49;;;;;;;9.00;6.00;;;;;;;15.01;100.00;100992.73;110235;1234;61069;-70
2023/07/08 05:09:18;;;;;;;9.40;5.90;;;;;;;15.04;100.00;100995.40;110420;1233;62400;-72
2023/07/08 05:11:47;;;;;;;10.30;6.50;;;;;;;15.04;100.00;100994.23;110577;1234;61437;-72
2023/07/08 05:14:16;;;;;;;11.50;5.60;;;;;;;15.09;100.00;100989.55;110500;1234;69437;-72
2023/07/08 05:16:45;;;;;;;8.10;5.30;;;;;;;15.07;100.00;100990.40;110496;1234;74062;-71
2023/07/08 05:19:14;;;;;;;11.30;6.00;;;;;;;15.08;100.00;100991.93;110411;1236;63273;-73
2023/07/08 05:21:45;;;;;;;7.30;5.90;;;;;;;15.09;100.00;100996.92;110493;1233;60035;-73
2023/07/08 05:24:13;;;;;;;11.30;6.70;;;;;;;15.05;100.00;100991.98;110443;1233;73257;-72
2023/07/08 05:26:42;;;;;;;7.70;5.70;;;;;;;15.13;100.00;100988.04;110343;1233;61990;-74
2023/07/08 05:29:11;;;;;;;9.00;5.70;;;;;;;15.19;100.00;100990.68;110526;1234;59191;-74
2023/07/08 05:31:40;;;;;;;8.20;5.10;;;;;;;15.19;100.00;100982.93;110440;1234;62299;-74
2023/07/08 05:34:15;;;;;;;7.10;5.70;;;;;;;15.22;100.00;100985.97;110447;1234;57846;-74
2023/07/08 05:36:44;;;;;;;7.20;5.20;;;;;;;15.24;100.00;100990.90;110357;1233;57328;-74
2023/07/08 05:39:13;;;;;;;6.40;5.40;;;;;;;15.27;100.00;100989.44;110533;1233;62167;-75
2023/07/08 05:41:42;;;;;;;9.10;6.00;;;;;;;15.31;100.00;100990.67;110571;1234;61417;-75
2023/07/08 05:44:11;;;;;;;7.30;5.60;;;;;;;15.35;100.00;100995.05;110493;1232;70415;-75
2023/07/08 05:46:40;;;;;;;6.10;4.60;;;;;;;15.38;100.00;100999.86;110366;1235;74111;-75
2023/07/08 05:49:09;;;;;;;7.30;4.90;;;;;;;15.46;100.00;100993.89;110476;1232;63314;-75
2023/07/08 05:51:38;;;;;;;9.10;5.10;;;;;;;15.53;100.00;100988.86;110537;1235;60199;-72
2023/07/08 05:54:07;;;;;;;6.90;5.00;;;;;;;15.63;100.00;101000.62;110357;1232;73986;-72
2023/07/08 05:56:36;;;;;;;9.20;5.20;;;;;;;15.70;100.00;100996.05;110490;1232;71029;-70
2023/07/08 05:59:05;;;;;;;9.90;5.50;;;;;;;15.80;100.00;101000.41;110322;1235;69691;-72
2023/07/08 06:01:33;;;;;;;6.60;4.40;;;;;;;15.80;100.00;100992.84;110276;1234;74586;-74
2023/07/08 06:04:03;;;;;;;7.70;5.10;;;;;;;15.93;100.00;100992.18;110195;1233;62422;-75
2023/07/08 06:06:32;;;;;;;5.10;4.00;;;;;;;16.01;100.00;100998.27;110539;1233;61500;-75
2023/07/08 06:09:00;;;;;;;7.90;4.50;;;;;;;16.03;100.00;100996.36;110516;1234;73870;-74
2023/07/08 06:11:29;;;;;;;7.70;4.60;;;;;;;16.05;100.00;100997.69;110527;1232;61698;-74
2023/07/08 06:14:00;;;;;;;9.70;4.50;;;;;;;16.13;100.00;101004.35;110502;1233;69838;-75
2023/07/08 06:16:30;;;;;;;6.80;4.30;;;;;;;16.15;100.00;101005.95;110541;1233;62819;-75
2023/07/08 06:19:09;;;;;;;8.40;4.90;;;;;;;16.15;100.00;101000.65;110360;1232;62394;-76
2023/07/08 06:21:38;;;;;;;7.90;4.40;;;;;;;16.16;100.00;101001.98;110316;1234;57482;-80
2023/07/08 06:24:07;;;;;;;7.60;4.50;;;;;;;16.26;100.00;101003.91;110618;1232;62123;-70
2023/07/08 06:26:36;;;;;;;7.20;4.60;;;;;;;16.32;100.00;101001.63;110440;1233;61731;-79
2023/07/08 06:29:05;;;;;;;8.40;4.50;;;;;;;16.48;100.00;100998.59;110439;1233;59079;-78
2023/07/08 06:31:34;;;;;;;6.20;3.60;;;;;;;16.54;100.00;101002.92;110466;1233;63024;-79
2023/07/08 06:34:04;;;;;;;7.60;4.40;;;;;;;16.65;100.00;101006.48;110531;1233;57637;-76
2023/07/08 06:36:32;;;;;;;8.00;4.10;;;;;;;16.69;100.00;101005.77;110351;1233;60927;-77
2023/07/08 06:39:02;;;;;;;5.00;4.00;;;;;;;16.76;100.00;101006.27;110566;1233;63484;-77
2023/07/08 06:41:30;;;;;;;6.10;4.20;;;;;;;16.92;100.00;101006.06;110300;1232;72155;-77
2023/07/08 06:43:59;;;;;;;5.80;4.00;;;;;;;16.94;100.00;101007.77;110411;1234;61848;-77
2023/07/08 06:46:32;;;;;;;5.00;3.60;;;;;;;17.11;100.00;101007.74;110085;1236;62510;-77
2023/07/08 06:49:02;;;;;;;8.50;4.30;;;;;;;17.07;100.00;101009.92;110200;1233;61371;-78
2023/07/08 06:51:31;;;;;;;6.70;4.30;;;;;;;17.04;100.00;101011.11;110151;1234;57267;-78
2023/07/08 06:54:04;;;;;;;7.00;3.80;;;;;;;17.23;100.00;101012.48;110453;1232;62144;-80
2023/07/08 06:56:33;;;;;;;7.70;4.20;;;;;;;17.35;100.00;101014.98;110228;1232;60900;-84
2023/07/08 06:59:02;;;;;;;5.00;3.50;;;;;;;17.42;100.00;101012.89;110077;1238;59864;-87
2023/07/08 07:01:31;;;;;;;6.60;4.30;;;;;;;17.52;100.00;101007.39;110290;1235;73134;-87
2023/07/08 07:04:01;;;;;;;5.70;3.90;;;;;;;17.66;100.00;101010.54;110088;1238;57668;-86
2023/07/08 07:06:30;;;;;;;4.90;3.60;;;;;;;17.78;100.00;101010.85;109983;1241;57911;-81
2023/07/08 07:08:59;;;;;;;6.30;3.90;;;;;;;17.95;100.00;101013.55;110273;1235;62194;-83
2023/07/08 07:11:28;;;;;;;4.80;3.20;;;;;;;18.04;100.00;101018.16;109917;1233;71475;-81
2023/07/08 07:13:58;;;;;;;7.50;3.90;;;;;;;18.10;100.00;101014.74;110215;1235;70499;-80
2023/07/08 07:16:27;;;;;;;5.30;3.40;;;;;;;18.29;100.00;101016.69;110134;1234;63240;-79
2023/07/08 07:18:56;;;;;;;6.40;3.90;;;;;;;18.32;100.00;101016.21;110331;1233;63552;-80
2023/07/08 07:21:25;;;;;;;7.30;3.30;;;;;;;18.37;100.00;101016.95;110311;1233;57312;-81
2023/07/08 07:23:56;;;;;;;6.00;3.40;;;;;;;18.46;100.00;101023.83;110436;1233;63031;-83
2023/07/08 07:26:25;;;;;;;5.80;3.60;;;;;;;18.56;100.00;101023.67;110114;1233;72182;-79
2023/07/08 07:28:54;;;;;;;6.00;3.50;;;;;;;18.50;100.00;101025.48;110202;1233;70108;-80
2023/07/08 07:31:22;;;;;;;6.30;3.50;;;;;;;18.47;100.00;101025.59;110337;1235;74429;-80
2023/07/08 07:33:51;;;;;;;5.50;3.30;;;;;;;18.54;100.00;101024.71;110243;1235;57631;-79
2023/07/08 07:36:35;;;;;;;5.20;3.50;;;;;;;18.46;100.00;101023.81;110234;1236;57929;-80
2023/07/08 07:39:06;;;;;;;5.50;3.60;;;;;;;18.55;100.00;101029.41;110038;1233;74034;-80
2023/07/08 07:41:35;;;;;;;5.50;3.50;;;;;;;18.60;100.00;101028.88;110342;1234;73188;-79
2023/07/08 07:44:04;;;;;;;4.60;3.60;;;;;;;18.68;100.00;101028.48;110170;1234;70082;-79
2023/07/08 07:46:32;;;;;;;4.50;3.50;;;;;;;18.72;100.00;101031.59;110269;1233;64676;-79
2023/07/08 07:49:01;;;;;;;6.40;3.40;;;;;;;18.82;100.00;101032.88;110231;1234;63682;-79
2023/07/08 07:51:30;;;;;;;5.30;3.80;;;;;;;18.91;100.00;101036.33;110354;1235;57853;-78
2023/07/08 07:53:59;;;;;;;7.40;3.80;;;;;;;19.03;100.00;101033.14;110399;1234;61967;-78
2023/07/08 07:56:28;;;;;;;9.00;4.00;;;;;;;19.15;100.00;101035.67;110384;1235;60718;-78
2023/07/08 07:58:57;;;;;;;5.10;3.30;;;;;;;19.22;100.00;101036.56;110105;1238;59773;-78
2023/07/08 08:01:26;;;;;;;6.70;3.80;;;;;;;19.35;100.00;101034.64;110217;1235;73936;-78
2023/07/08 08:03:55;;;;;;;5.70;3.50;;;;;;;19.48;100.00;101042.30;110184;1234;61305;-78
2023/07/08 08:06:24;;;;;;;6.00;3.60;;;;;;;19.64;100.00;101040.24;110514;1232;60549;-78
2023/07/08 08:08:53;;;;;;;4.20;3.20;;;;;;;19.66;100.00;101038.49;110436;1234;73496;-78
2023/07/08 08:11:22;;;;;;;9.00;3.60;;;;;;;19.72;100.00;101039.23;110481;1233;71857;-79
2023/07/08 08:13:52;;;;;;;5.10;3.30;;;;;;;19.67;100.00;101038.30;110388;1235;70758;-79
2023/07/08 08:16:21;;;;;;;6.80;3.90;;;;;;;19.66;100.00;101037.41;110326;1235;63615;-79
2023/07/08 08:18:50;;;;;;;6.00;3.50;;;;;;;19.54;100.00;101042.16;110049;1240;61334;-78
2023/07/08 08:21:19;;;;;;;6.80;3.80;;;;;;;19.71;100.00;101040.16;110502;1235;57693;-78
2023/07/08 08:23:48;;;;;;;7.10;3.80;;;;;;;19.86;100.00;101043.75;110267;1234;72576;-79
2023/07/08 08:26:17;;;;;;;11.80;3.70;;;;;;;19.91;100.00;101044.85;110515;1233;62090;-79
2023/07/08 08:28:46;;;;;;;7.30;3.20;;;;;;;19.94;100.00;101044.13;110533;1232;59773;-78
2023/07/08 08:31:16;;;;;;;8.20;3.90;;;;;;;20.07;100.00;101045.02;110337;1234;73889;-78
2023/07/08 08:33:46;;;;;;;6.50;3.40;;;;;;;20.19;100.00;101053.42;110362;1233;57639;-76
2023/07/08 08:36:14;;;;;;;5.30;3.30;;;;;;;20.30;100.00;101057.60;110548;1234;60689;-77
2023/07/08 08:38:43;;;;;;;6.10;3.50;;;;;;;20.35;100.00;101053.66;110357;1233;73868;-84
2023/07/08 08:41:16;;;;;;;5.10;3.30;;;;;;;20.39;100.00;101056.48;110338;1233;61930;-73
2023/07/08 08:43:47;;;;;;;;;;;;;;;20.49;100.00;101055.67;110519;1233;59741;-73
2023/07/08 08:46:51;;;;;;;5.00;3.40;;;;;;;20.51;100.00;101059.09;110306;1234;73841;-75
2023/07/08 08:49:21;;;;;;;6.40;3.50;;;;;;;20.65;100.00;101058.54;110020;1234;62198;-74
2023/07/08 08:51:51;;;;;;;4.40;3.20;;;;;;;20.68;100.00;101066.70;110376;1238;57874;-76
2023/07/08 08:54:21;;;;;;;5.60;3.60;;;;;;;20.65;100.00;101063.59;110393;1234;73128;-75
2023/07/08 08:57:31;;;;;;;6.40;3.20;;;;;;;20.58;100.00;101070.33;110340;1235;71991;-75
2023/07/08 09:00:01;;;;;;;5.60;3.30;;;;;;;20.64;100.00;101069.17;110223;1233;60506;-75
2023/07/08 09:02:57;;;;;;;3.70;3.00;;;;;;;20.74;100.00;101067.92;110368;1236;63022;-77
2023/07/08 09:05:26;;;;;;;5.40;3.10;;;;;;;20.68;100.00;101069.77;110411;1235;57703;-76
2023/07/08 09:08:20;;;;;;;4.10;3.40;;;;;;;20.62;100.00;101070.96;110494;1234;57748;-75
2023/07/08 09:11:08;;;;;;;4.40;2.90;;;;;;;20.57;100.00;101075.73;110379;1234;72821;-76
2023/07/08 09:13:38;;;;;;;5.00;3.10;;;;;;;20.38;100.00;101076.20;110503;1233;73206;-77
2023/07/08 09:16:49;;;;;;;10.50;3.30;;;;;;;20.53;100.00;101078.33;110291;1233;71548;-77
2023/07/08 09:19:34;;;;;;;7.20;3.00;;;;;;;20.53;100.00;101081.97;110277;1234;63518;-79
2023/07/08 09:22:45;;;;;;;8.70;3.30;;;;;;;20.54;100.00;101082.77;110374;1236;61818;-76
2023/07/08 09:25:43;;;;;;;6.40;3.30;;;;;;;20.62;100.00;101076.63;110317;1233;60034;-77
2023/07/08 09:28:13;;;;;;;5.80;3.20;;;;;;;20.65;100.00;101074.48;110430;1233;74083;-78
2023/07/08 09:30:53;;;;;;;5.90;3.40;;;;;;;20.66;100.00;101072.25;110326;1239;61021;-75
2023/07/08 09:33:24;;;;;;;5.10;2.90;;;;;;;20.62;100.00;101074.84;110343;1234;69659;-77
2023/07/08 09:35:53;;;;;;;6.00;3.10;;;;;;;20.72;100.00;101076.77;110426;1235;64270;-77
2023/07/08 09:38:23;;;;;;;5.00;2.80;;;;;;;20.78;100.00;101078.90;110230;1235;61697;-76
2023/07/08 09:40:55;;;;;;;6.00;3.50;;;;;;;20.84;100.00;101076.17;110106;1238;61551;-75
2023/07/08 09:43:38;;;;;;;5.30;3.10;;;;;;;20.81;100.00;101071.49;110424;1235;63569;-74
2023/07/08 09:46:13;;;;;;;3.70;3.10;;;;;;;20.81;100.00;101069.01;110244;1233;72564;-75
2023/07/08 09:48:46;;;;;;;4.40;3.00;;;;;;;20.78;100.00;101066.16;110417;1234;61826;-76
2023/07/08 09:51:15;;;;;;;4.60;3.20;;;;;;;20.74;100.00;101072.80;110467;1234;74052;-75
2023/07/08 09:53:46;;;;;;;6.10;2.90;;;;;;;20.70;100.00;101071.52;110130;1239;59345;-75
2023/07/08 09:56:15;;;;;;;6.30;3.00;;;;;;;20.64;100.00;101071.79;110465;1235;57669;-74
2023/07/08 09:58:49;;;;;;;5.80;3.00;;;;;;;20.60;100.00;101070.10;110310;1238;72508;-76
2023/07/08 10:01:26;;;;;;;5.20;3.20;;;;;;;20.49;100.00;101077.16;110355;1234;72683;-76
2023/07/08 10:04:00;;;;;;;5.40;2.60;;;;;;;20.56;100.00;101069.23;110393;1236;60823;-75
2023/07/08 10:06:33;;;;;;;4.90;3.10;;;;;;;20.57;100.00;101076.08;110207;1233;74385;-74
2023/07/08 10:09:11;;;;;;;4.30;2.70;;;;;;;20.58;100.00;101071.88;110356;1233;62657;-75
2023/07/08 10:11:47;;;;;;;5.20;2.80;;;;;;;20.58;100.00;101068.86;110515;1234;57687;-73
2023/07/08 10:14:37;;;;;;;4.10;2.50;;;;;;;20.65;100.00;101072.19;110357;1233;73546;-74
2023/07/08 10:17:10;;;;;;;4.20;2.90;;;;;;;20.63;100.00;101068.93;110410;1235;62018;-74
2023/07/08 10:19:39;;;;;;;5.40;2.80;;;;;;;20.65;100.00;101063.86;110456;1234;69686;-73
2023/07/08 10:22:47;;;;;;;4.90;3.10;;;;;;;20.70;100.00;101061.96;110495;1235;63972;-74
2023/07/08 10:26:23;;;;;;;3.40;2.80;;;;;;;20.75;100.00;101063.98;110253;1236;57664;-76
2023/07/08 10:29:14;;;;;;;7.80;2.60;;;;;;;20.86;100.00;101061.18;110378;1236;57666;-69
2023/07/08 10:32:04;;;;;;;7.10;2.90;;;;;;;21.03;100.00;101056.20;110330;1232;72711;-70
2023/07/08 10:34:52;;;;;;;5.20;2.80;;;;;;;21.22;100.00;101057.95;110543;1234;61207;-69
2023/07/08 10:37:51;;;;;;;4.30;2.20;;;;;;;21.40;100.00;101052.79;110299;1236;59952;-71
2023/07/08 10:40:53;;;;;;;5.20;2.80;;;;;;;21.50;100.00;101048.81;110358;1233;73333;-71
2023/07/08 10:43:33;;;;;;;3.30;2.40;;;;;;;21.66;100.00;101052.41;110311;1235;63188;-71
2023/07/08 10:46:26;;;;;;;3.50;2.50;;;;;;;21.68;100.00;101057.75;110451;1233;60156;-73
2023/07/08 10:49:42;;;;;;;4.50;2.30;;;;;;;21.83;100.00;101049.58;110487;1235;63491;-72
2023/07/08 10:52:39;;;;;;;4.70;2.40;;;;;;;21.93;100.00;101048.98;109846;1241;71548;-74
2023/07/08 10:55:50;;;;;;;4.10;1.80;;;;;;;21.88;100.00;101042.27;110270;1233;70841;-68
2023/07/08 10:59:05;;;;;;;3.90;2.20;;;;;;;21.86;99.66;101045.63;110334;1235;72485;-68
2023/07/08 11:02:08;;;;;;;8.40;2.60;;;;;;;21.83;99.37;101040.73;110441;1234;57705;-69
2023/07/08 11:05:34;;;;;;;7.60;2.90;;;;;;;21.89;99.82;101036.61;110243;1234;57623;-68
2023/07/08 11:08:26;;;;;;;3.50;2.10;;;;;;;21.85;98.98;101038.01;110421;1233;62807;-67
2023/07/08 11:11:31;;;;;;;5.00;2.50;;;;;;;21.92;99.38;101037.69;110356;1233;70651;-69
2023/07/08 11:14:23;;;;;;;5.70;2.40;;;;;;;21.88;98.97;101035.32;110412;1234;70118;-68
2023/07/08 11:17:01;;;;;;;5.90;2.40;;;;;;;21.93;98.21;101034.39;110309;1235;73668;-68
2023/07/08 11:19:42;;;;;;;4.20;2.30;;;;;;;21.96;98.91;101031.97;110483;1236;61639;-68
2023/07/08 11:22:15;;;;;;;4.20;2.00;;;;;;;21.95;96.59;101039.33;110329;1234;61317;-69
2023/07/08 11:24:52;;;;;;;4.20;2.40;;;;;;;21.96;94.12;101036.37;110334;1235;64630;-69
2023/07/08 11:27:27;;;;;;;5.80;2.20;;;;;;;21.84;88.97;101034.69;110157;1232;71600;-68
2023/07/08 11:30:11;;;;;;;5.10;2.80;;;;;;;21.96;80.44;101032.30;110356;1234;60179;-69
2023/07/08 11:32:45;;;;;;;4.80;2.50;;;;;;;21.95;79.16;101027.79;110393;1232;73775;-67
2023/07/08 11:35:25;;;;;;;4.10;2.00;;;;;;;21.99;79.19;101027.34;110385;1236;61609;-68
2023/07/08 11:37:55;;;;;;;3.80;2.30;;;;;;;21.98;79.28;101028.50;110396;1234;58211;-68